sensor_id;sensor_type;location;lat;lon;timestamp;P1;durP1;ratioP1;P2;durP2;ratioP2
16504;SDS011;8365;51.030;4.696;2022-12-07T00:02:01;17.40;;;13.73;;
16504;SDS011;8365;51.030;4.696;2022-12-07T00:04:32;17.27;;;14.80;;
16504;SDS011;8365;51.030;4.696;2022-12-07T00:07:02;16.13;;;13.97;;
16504;SDS011;8365;51.030;4.696;2022-12-07T00:09:34;16.07;;;13.43;;
16504;SDS011;8365;51.030;4.696;2022-12-07T00:12:04;17.33;;;13.80;;
16504;SDS011;8365;51.030;4.696;2022-12-07T00:14:35;17.53;;;13.87;;
16504;SDS011;8365;51.030;4.696;2022-12-07T00:17:05;15.27;;;13.07;;
16504;SDS011;8365;51.030;4.696;2022-12-07T00:19:35;16.20;;;13.40;;
16504;SDS011;8365;51.030;4.696;2022-12-07T00:22:06;15.10;;;12.93;;
16504;SDS011;8365;51.030;4.696;2022-12-07T00:24:36;16.07;;;14.23;;
16504;SDS011;8365;51.030;4.696;2022-12-07T00:27:09;18.73;;;15.00;;
16504;SDS011;8365;51.030;4.696;2022-12-07T00:29:40;17.37;;;13.83;;
16504;SDS011;8365;51.030;4.696;2022-12-07T00:32:10;19.83;;;15.07;;
16504;SDS011;8365;51.030;4.696;2022-12-07T00:34:40;18.63;;;15.10;;
16504;SDS011;8365;51.030;4.696;2022-12-07T00:37:11;18.37;;;15.23;;
16504;SDS011;8365;51.030;4.696;2022-12-07T00:39:44;20.77;;;15.73;;
16504;SDS011;8365;51.030;4.696;2022-12-07T00:42:15;20.33;;;16.43;;
16504;SDS011;8365;51.030;4.696;2022-12-07T00:44:46;18.60;;;16.00;;
16504;SDS011;8365;51.030;4.696;2022-12-07T00:47:16;19.27;;;15.83;;
16504;SDS011;8365;51.030;4.696;2022-12-07T00:49:47;20.67;;;16.03;;
16504;SDS011;8365;51.030;4.696;2022-12-07T00:52:17;18.37;;;16.40;;
16504;SDS011;8365;51.030;4.696;2022-12-07T00:54:48;19.80;;;16.40;;
16504;SDS011;8365;51.030;4.696;2022-12-07T00:57:18;17.83;;;15.37;;
16504;SDS011;8365;51.030;4.696;2022-12-07T00:59:48;21.40;;;16.70;;
16504;SDS011;8365;51.030;4.696;2022-12-07T01:02:19;22.33;;;16.03;;
16504;SDS011;8365;51.030;4.696;2022-12-07T01:04:49;22.77;;;16.67;;
16504;SDS011;8365;51.030;4.696;2022-12-07T01:07:20;20.60;;;16.97;;
16504;SDS011;8365;51.030;4.696;2022-12-07T01:09:50;19.83;;;17.17;;
16504;SDS011;8365;51.030;4.696;2022-12-07T01:12:20;21.23;;;17.17;;
16504;SDS011;8365;51.030;4.696;2022-12-07T01:14:51;23.13;;;17.27;;
16504;SDS011;8365;51.030;4.696;2022-12-07T01:17:21;20.00;;;16.50;;
16504;SDS011;8365;51.030;4.696;2022-12-07T01:19:52;21.80;;;18.50;;
16504;SDS011;8365;51.030;4.696;2022-12-07T01:22:22;26.10;;;18.30;;
16504;SDS011;8365;51.030;4.696;2022-12-07T01:24:55;21.50;;;17.83;;
16504;SDS011;8365;51.030;4.696;2022-12-07T01:27:28;20.80;;;17.23;;
16504;SDS011;8365;51.030;4.696;2022-12-07T01:29:58;22.50;;;17.77;;
16504;SDS011;8365;51.030;4.696;2022-12-07T01:32:29;19.80;;;17.73;;
16504;SDS011;8365;51.030;4.696;2022-12-07T01:35:00;21.23;;;17.93;;
16504;SDS011;8365;51.030;4.696;2022-12-07T01:37:34;22.87;;;18.20;;
16504;SDS011;8365;51.030;4.696;2022-12-07T01:40:06;23.40;;;19.10;;
16504;SDS011;8365;51.030;4.696;2022-12-07T01:42:37;22.67;;;18.97;;
16504;SDS011;8365;51.030;4.696;2022-12-07T01:47:52;19.53;;;17.53;;
16504;SDS011;8365;51.030;4.696;2022-12-07T01:50:25;21.60;;;18.60;;
16504;SDS011;8365;51.030;4.696;2022-12-07T01:52:58;19.50;;;17.40;;
16504;SDS011;8365;51.030;4.696;2022-12-07T01:55:30;21.13;;;18.47;;
16504;SDS011;8365;51.030;4.696;2022-12-07T01:58:01;21.07;;;17.80;;
16504;SDS011;8365;51.030;4.696;2022-12-07T02:00:31;21.80;;;18.07;;
16504;SDS011;8365;51.030;4.696;2022-12-07T02:03:07;20.70;;;18.27;;
16504;SDS011;8365;51.030;4.696;2022-12-07T02:05:48;22.17;;;17.83;;
16504;SDS011;8365;51.030;4.696;2022-12-07T02:08:20;24.80;;;17.77;;
16504;SDS011;8365;51.030;4.696;2022-12-07T02:10:50;22.30;;;18.53;;
16504;SDS011;8365;51.030;4.696;2022-12-07T02:13:22;24.03;;;18.93;;
16504;SDS011;8365;51.030;4.696;2022-12-07T02:18:38;21.13;;;18.20;;
16504;SDS011;8365;51.030;4.696;2022-12-07T02:29:45;21.67;;;19.17;;
16504;SDS011;8365;51.030;4.696;2022-12-07T02:38:18;24.00;;;19.73;;
16504;SDS011;8365;51.030;4.696;2022-12-07T02:40:53;26.23;;;19.67;;
16504;SDS011;8365;51.030;4.696;2022-12-07T02:43:35;20.93;;;18.73;;
16504;SDS011;8365;51.030;4.696;2022-12-07T02:46:12;25.27;;;20.03;;
16504;SDS011;8365;51.030;4.696;2022-12-07T02:48:46;22.10;;;18.80;;
16504;SDS011;8365;51.030;4.696;2022-12-07T02:51:18;25.93;;;19.50;;
16504;SDS011;8365;51.030;4.696;2022-12-07T02:53:49;23.77;;;18.93;;
16504;SDS011;8365;51.030;4.696;2022-12-07T02:59:17;21.57;;;18.37;;
16504;SDS011;8365;51.030;4.696;2022-12-07T03:05:12;21.63;;;18.77;;
16504;SDS011;8365;51.030;4.696;2022-12-07T03:13:28;21.80;;;18.67;;
16504;SDS011;8365;51.030;4.696;2022-12-07T03:16:16;20.43;;;18.20;;
16504;SDS011;8365;51.030;4.696;2022-12-07T03:18:54;21.83;;;19.40;;
16504;SDS011;8365;51.030;4.696;2022-12-07T03:21:28;21.30;;;18.97;;
16504;SDS011;8365;51.030;4.696;2022-12-07T03:24:07;22.97;;;19.27;;
16504;SDS011;8365;51.030;4.696;2022-12-07T03:26:42;23.80;;;19.40;;
16504;SDS011;8365;51.030;4.696;2022-12-07T03:29:24;23.10;;;19.77;;
16504;SDS011;8365;51.030;4.696;2022-12-07T03:32:03;25.83;;;20.70;;
16504;SDS011;8365;51.030;4.696;2022-12-07T03:37:23;24.60;;;20.97;;
16504;SDS011;8365;51.030;4.696;2022-12-07T03:40:48;23.90;;;20.43;;
16504;SDS011;8365;51.030;4.696;2022-12-07T03:43:00;22.23;;;19.73;;
16504;SDS011;8365;51.030;4.696;2022-12-07T03:45:40;26.40;;;20.70;;
16504;SDS011;8365;51.030;4.696;2022-12-07T03:48:24;23.33;;;20.07;;
16504;SDS011;8365;51.030;4.696;2022-12-07T03:51:14;23.80;;;19.00;;
16504;SDS011;8365;51.030;4.696;2022-12-07T03:54:00;24.07;;;19.47;;
16504;SDS011;8365;51.030;4.696;2022-12-07T03:56:37;21.67;;;19.00;;
16504;SDS011;8365;51.030;4.696;2022-12-07T03:59:08;26.40;;;20.43;;
16504;SDS011;8365;51.030;4.696;2022-12-07T04:01:42;28.83;;;20.73;;
16504;SDS011;8365;51.030;4.696;2022-12-07T04:04:13;26.97;;;20.17;;
16504;SDS011;8365;51.030;4.696;2022-12-07T04:06:44;24.53;;;19.73;;
16504;SDS011;8365;51.030;4.696;2022-12-07T04:09:14;21.80;;;19.10;;
16504;SDS011;8365;51.030;4.696;2022-12-07T04:11:45;21.30;;;18.90;;
16504;SDS011;8365;51.030;4.696;2022-12-07T04:14:16;24.30;;;19.87;;
16504;SDS011;8365;51.030;4.696;2022-12-07T04:16:50;22.87;;;18.63;;
16504;SDS011;8365;51.030;4.696;2022-12-07T04:19:23;22.03;;;18.50;;
16504;SDS011;8365;51.030;4.696;2022-12-07T04:21:56;25.87;;;19.60;;
16504;SDS011;8365;51.030;4.696;2022-12-07T04:24:28;24.10;;;19.57;;
16504;SDS011;8365;51.030;4.696;2022-12-07T04:26:59;24.50;;;19.27;;
16504;SDS011;8365;51.030;4.696;2022-12-07T04:29:32;23.90;;;19.50;;
16504;SDS011;8365;51.030;4.696;2022-12-07T04:32:02;25.03;;;19.37;;
16504;SDS011;8365;51.030;4.696;2022-12-07T04:34:33;22.23;;;19.23;;
16504;SDS011;8365;51.030;4.696;2022-12-07T04:37:03;24.30;;;19.70;;
16504;SDS011;8365;51.030;4.696;2022-12-07T04:39:36;23.90;;;18.60;;
16504;SDS011;8365;51.030;4.696;2022-12-07T04:42:06;22.83;;;18.50;;
16504;SDS011;8365;51.030;4.696;2022-12-07T04:44:37;22.03;;;18.90;;
16504;SDS011;8365;51.030;4.696;2022-12-07T04:47:07;23.83;;;17.87;;
16504;SDS011;8365;51.030;4.696;2022-12-07T04:49:38;22.63;;;18.37;;
16504;SDS011;8365;51.030;4.696;2022-12-07T04:52:08;19.87;;;17.50;;
16504;SDS011;8365;51.030;4.696;2022-12-07T04:54:39;21.37;;;17.80;;
16504;SDS011;8365;51.030;4.696;2022-12-07T04:57:09;23.40;;;17.87;;
16504;SDS011;8365;51.030;4.696;2022-12-07T04:59:40;21.57;;;16.93;;
16504;SDS011;8365;51.030;4.696;2022-12-07T05:02:10;21.50;;;17.33;;
16504;SDS011;8365;51.030;4.696;2022-12-07T05:04:40;21.23;;;18.00;;
16504;SDS011;8365;51.030;4.696;2022-12-07T05:07:11;23.43;;;17.93;;
16504;SDS011;8365;51.030;4.696;2022-12-07T05:09:41;19.47;;;17.37;;
16504;SDS011;8365;51.030;4.696;2022-12-07T05:12:12;20.00;;;15.97;;
16504;SDS011;8365;51.030;4.696;2022-12-07T05:14:42;20.90;;;16.57;;
16504;SDS011;8365;51.030;4.696;2022-12-07T05:17:13;21.73;;;17.20;;
16504;SDS011;8365;51.030;4.696;2022-12-07T05:19:44;20.83;;;17.47;;
16504;SDS011;8365;51.030;4.696;2022-12-07T05:22:14;22.70;;;17.67;;
16504;SDS011;8365;51.030;4.696;2022-12-07T05:24:45;21.63;;;17.27;;
16504;SDS011;8365;51.030;4.696;2022-12-07T05:27:15;19.80;;;16.80;;
16504;SDS011;8365;51.030;4.696;2022-12-07T05:29:46;21.83;;;16.87;;
16504;SDS011;8365;51.030;4.696;2022-12-07T05:32:16;21.57;;;15.97;;
16504;SDS011;8365;51.030;4.696;2022-12-07T05:34:47;21.53;;;17.87;;
16504;SDS011;8365;51.030;4.696;2022-12-07T05:37:20;21.20;;;17.10;;
16504;SDS011;8365;51.030;4.696;2022-12-07T05:39:51;21.43;;;16.67;;
16504;SDS011;8365;51.030;4.696;2022-12-07T05:42:21;21.13;;;17.27;;
16504;SDS011;8365;51.030;4.696;2022-12-07T05:44:52;18.93;;;16.33;;
16504;SDS011;8365;51.030;4.696;2022-12-07T05:47:22;19.90;;;16.63;;
16504;SDS011;8365;51.030;4.696;2022-12-07T05:49:53;22.97;;;16.97;;
16504;SDS011;8365;51.030;4.696;2022-12-07T05:52:23;20.30;;;15.83;;
16504;SDS011;8365;51.030;4.696;2022-12-07T05:54:54;18.17;;;15.93;;
16504;SDS011;8365;51.030;4.696;2022-12-07T05:57:24;19.23;;;15.33;;
16504;SDS011;8365;51.030;4.696;2022-12-07T05:59:55;19.80;;;15.60;;
16504;SDS011;8365;51.030;4.696;2022-12-07T06:02:26;19.10;;;15.17;;
16504;SDS011;8365;51.030;4.696;2022-12-07T06:04:56;19.63;;;16.03;;
16504;SDS011;8365;51.030;4.696;2022-12-07T06:07:27;17.57;;;15.63;;
16504;SDS011;8365;51.030;4.696;2022-12-07T06:09:57;19.87;;;15.37;;
16504;SDS011;8365;51.030;4.696;2022-12-07T06:12:28;19.50;;;15.57;;
16504;SDS011;8365;51.030;4.696;2022-12-07T06:15:05;19.93;;;15.20;;
16504;SDS011;8365;51.030;4.696;2022-12-07T06:17:36;17.67;;;14.93;;
16504;SDS011;8365;51.030;4.696;2022-12-07T06:20:06;21.80;;;15.40;;
16504;SDS011;8365;51.030;4.696;2022-12-07T06:22:37;17.00;;;15.20;;
16504;SDS011;8365;51.030;4.696;2022-12-07T06:25:08;18.97;;;15.37;;
16504;SDS011;8365;51.030;4.696;2022-12-07T06:27:39;21.87;;;15.07;;
16504;SDS011;8365;51.030;4.696;2022-12-07T06:30:10;18.77;;;15.83;;
16504;SDS011;8365;51.030;4.696;2022-12-07T06:32:40;16.53;;;14.83;;
16504;SDS011;8365;51.030;4.696;2022-12-07T06:35:11;19.50;;;14.23;;
16504;SDS011;8365;51.030;4.696;2022-12-07T06:37:41;21.43;;;15.13;;
16504;SDS011;8365;51.030;4.696;2022-12-07T06:40:12;17.33;;;14.57;;
16504;SDS011;8365;51.030;4.696;2022-12-07T06:42:42;16.07;;;13.50;;
16504;SDS011;8365;51.030;4.696;2022-12-07T06:45:13;16.37;;;14.10;;
16504;SDS011;8365;51.030;4.696;2022-12-07T06:47:43;16.57;;;14.50;;
16504;SDS011;8365;51.030;4.696;2022-12-07T06:50:13;16.00;;;13.87;;
16504;SDS011;8365;51.030;4.696;2022-12-07T06:52:44;16.43;;;12.93;;
16504;SDS011;8365;51.030;4.696;2022-12-07T06:55:14;16.20;;;14.07;;
16504;SDS011;8365;51.030;4.696;2022-12-07T06:57:45;14.07;;;12.53;;
16504;SDS011;8365;51.030;4.696;2022-12-07T07:00:16;14.63;;;13.10;;
16504;SDS011;8365;51.030;4.696;2022-12-07T07:02:46;16.97;;;12.77;;
16504;SDS011;8365;51.030;4.696;2022-12-07T07:05:17;17.33;;;13.50;;
16504;SDS011;8365;51.030;4.696;2022-12-07T07:07:51;14.30;;;12.70;;
16504;SDS011;8365;51.030;4.696;2022-12-07T07:10:22;16.80;;;13.60;;
16504;SDS011;8365;51.030;4.696;2022-12-07T07:12:54;16.83;;;13.37;;
16504;SDS011;8365;51.030;4.696;2022-12-07T07:15:28;16.33;;;13.47;;
16504;SDS011;8365;51.030;4.696;2022-12-07T07:17:58;16.53;;;13.47;;
16504;SDS011;8365;51.030;4.696;2022-12-07T07:20:29;15.30;;;12.83;;
16504;SDS011;8365;51.030;4.696;2022-12-07T07:22:59;16.57;;;13.70;;
16504;SDS011;8365;51.030;4.696;2022-12-07T07:25:30;17.53;;;12.77;;
16504;SDS011;8365;51.030;4.696;2022-12-07T07:28:01;13.30;;;11.90;;
16504;SDS011;8365;51.030;4.696;2022-12-07T07:30:31;14.50;;;12.50;;
16504;SDS011;8365;51.030;4.696;2022-12-07T07:33:04;14.77;;;12.10;;
16504;SDS011;8365;51.030;4.696;2022-12-07T07:35:35;15.67;;;12.20;;
16504;SDS011;8365;51.030;4.696;2022-12-07T07:38:06;14.57;;;11.47;;
16504;SDS011;8365;51.030;4.696;2022-12-07T07:40:37;18.37;;;12.80;;
16504;SDS011;8365;51.030;4.696;2022-12-07T07:43:07;15.60;;;11.67;;
16504;SDS011;8365;51.030;4.696;2022-12-07T07:45:38;13.30;;;11.70;;
16504;SDS011;8365;51.030;4.696;2022-12-07T07:48:10;14.10;;;12.07;;
16504;SDS011;8365;51.030;4.696;2022-12-07T07:50:41;14.97;;;11.80;;
16504;SDS011;8365;51.030;4.696;2022-12-07T07:53:11;16.13;;;12.43;;
16504;SDS011;8365;51.030;4.696;2022-12-07T07:55:49;17.30;;;12.40;;
16504;SDS011;8365;51.030;4.696;2022-12-07T07:58:21;14.97;;;12.13;;
16504;SDS011;8365;51.030;4.696;2022-12-07T08:00:51;16.97;;;11.90;;
16504;SDS011;8365;51.030;4.696;2022-12-07T08:03:23;17.33;;;12.73;;
16504;SDS011;8365;51.030;4.696;2022-12-07T08:05:53;16.57;;;11.90;;
16504;SDS011;8365;51.030;4.696;2022-12-07T08:08:24;15.90;;;11.10;;
16504;SDS011;8365;51.030;4.696;2022-12-07T08:10:54;16.60;;;12.60;;
16504;SDS011;8365;51.030;4.696;2022-12-07T08:13:25;15.33;;;12.90;;
16504;SDS011;8365;51.030;4.696;2022-12-07T08:15:55;16.80;;;12.60;;
16504;SDS011;8365;51.030;4.696;2022-12-07T08:18:26;14.83;;;12.10;;
16504;SDS011;8365;51.030;4.696;2022-12-07T08:21:00;14.83;;;13.23;;
16504;SDS011;8365;51.030;4.696;2022-12-07T08:23:33;17.73;;;12.97;;
16504;SDS011;8365;51.030;4.696;2022-12-07T08:26:05;15.53;;;13.20;;
16504;SDS011;8365;51.030;4.696;2022-12-07T08:28:40;18.67;;;13.43;;
16504;SDS011;8365;51.030;4.696;2022-12-07T08:31:12;15.77;;;11.90;;
16504;SDS011;8365;51.030;4.696;2022-12-07T08:33:46;16.00;;;13.03;;
16504;SDS011;8365;51.030;4.696;2022-12-07T08:36:17;17.43;;;12.90;;
16504;SDS011;8365;51.030;4.696;2022-12-07T08:38:48;19.80;;;12.80;;
16504;SDS011;8365;51.030;4.696;2022-12-07T08:41:19;17.00;;;12.70;;
16504;SDS011;8365;51.030;4.696;2022-12-07T08:43:50;17.30;;;12.67;;
16504;SDS011;8365;51.030;4.696;2022-12-07T08:46:22;22.13;;;13.23;;
16504;SDS011;8365;51.030;4.696;2022-12-07T08:48:57;17.23;;;13.53;;
16504;SDS011;8365;51.030;4.696;2022-12-07T08:51:32;16.73;;;12.77;;
16504;SDS011;8365;51.030;4.696;2022-12-07T08:54:04;15.33;;;12.53;;
16504;SDS011;8365;51.030;4.696;2022-12-07T08:56:37;16.97;;;14.47;;
16504;SDS011;8365;51.030;4.696;2022-12-07T08:59:10;16.90;;;12.27;;
16504;SDS011;8365;51.030;4.696;2022-12-07T09:01:43;17.60;;;12.13;;
16504;SDS011;8365;51.030;4.696;2022-12-07T09:04:14;13.87;;;11.37;;
16504;SDS011;8365;51.030;4.696;2022-12-07T09:06:45;16.97;;;12.73;;
16504;SDS011;8365;51.030;4.696;2022-12-07T09:09:17;15.20;;;12.03;;
16504;SDS011;8365;51.030;4.696;2022-12-07T09:11:47;14.40;;;11.80;;
16504;SDS011;8365;51.030;4.696;2022-12-07T09:14:17;15.40;;;11.47;;
16504;SDS011;8365;51.030;4.696;2022-12-07T09:16:53;16.23;;;11.73;;
16504;SDS011;8365;51.030;4.696;2022-12-07T09:19:23;16.17;;;12.03;;
16504;SDS011;8365;51.030;4.696;2022-12-07T09:21:54;12.67;;;11.30;;
16504;SDS011;8365;51.030;4.696;2022-12-07T09:24:24;16.03;;;11.27;;
16504;SDS011;8365;51.030;4.696;2022-12-07T09:26:55;13.57;;;11.23;;
16504;SDS011;8365;51.030;4.696;2022-12-07T09:29:25;14.17;;;10.93;;
16504;SDS011;8365;51.030;4.696;2022-12-07T09:31:56;14.03;;;10.87;;
16504;SDS011;8365;51.030;4.696;2022-12-07T09:34:26;15.73;;;11.00;;
16504;SDS011;8365;51.030;4.696;2022-12-07T09:36:56;17.93;;;11.13;;
16504;SDS011;8365;51.030;4.696;2022-12-07T09:39:27;11.67;;;10.10;;
16504;SDS011;8365;51.030;4.696;2022-12-07T09:41:58;13.77;;;10.30;;
16504;SDS011;8365;51.030;4.696;2022-12-07T09:44:32;14.00;;;10.33;;
16504;SDS011;8365;51.030;4.696;2022-12-07T09:47:03;15.77;;;10.50;;
16504;SDS011;8365;51.030;4.696;2022-12-07T09:49:33;14.03;;;9.67;;
16504;SDS011;8365;51.030;4.696;2022-12-07T09:54:37;11.93;;;10.73;;
16504;SDS011;8365;51.030;4.696;2022-12-07T09:57:11;12.43;;;10.40;;
16504;SDS011;8365;51.030;4.696;2022-12-07T09:59:42;15.30;;;11.10;;
16504;SDS011;8365;51.030;4.696;2022-12-07T10:05:10;11.50;;;9.00;;
16504;SDS011;8365;51.030;4.696;2022-12-07T10:07:46;10.67;;;9.10;;
16504;SDS011;8365;51.030;4.696;2022-12-07T10:10:18;10.10;;;8.37;;
16504;SDS011;8365;51.030;4.696;2022-12-07T10:13:05;10.63;;;7.57;;
16504;SDS011;8365;51.030;4.696;2022-12-07T10:15:54;8.67;;;7.27;;
16504;SDS011;8365;51.030;4.696;2022-12-07T10:23:58;9.27;;;7.67;;
16504;SDS011;8365;51.030;4.696;2022-12-07T10:26:38;9.33;;;7.33;;
16504;SDS011;8365;51.030;4.696;2022-12-07T10:29:24;10.80;;;6.80;;
16504;SDS011;8365;51.030;4.696;2022-12-07T10:32:03;11.10;;;7.67;;
16504;SDS011;8365;51.030;4.696;2022-12-07T10:34:37;8.03;;;7.23;;
16504;SDS011;8365;51.030;4.696;2022-12-07T10:37:16;11.83;;;7.50;;
16504;SDS011;8365;51.030;4.696;2022-12-07T10:39:57;8.37;;;7.07;;
16504;SDS011;8365;51.030;4.696;2022-12-07T10:42:31;13.73;;;6.80;;
16504;SDS011;8365;51.030;4.696;2022-12-07T10:45:17;8.37;;;7.13;;
16504;SDS011;8365;51.030;4.696;2022-12-07T10:47:57;12.70;;;7.20;;
16504;SDS011;8365;51.030;4.696;2022-12-07T10:53:46;10.13;;;6.70;;
16504;SDS011;8365;51.030;4.696;2022-12-07T11:02:06;12.30;;;6.43;;
16504;SDS011;8365;51.030;4.696;2022-12-07T11:10:47;8.17;;;5.67;;
16504;SDS011;8365;51.030;4.696;2022-12-07T11:13:44;6.90;;;5.60;;
16504;SDS011;8365;51.030;4.696;2022-12-07T11:27:37;9.83;;;5.70;;
16504;SDS011;8365;51.030;4.696;2022-12-07T11:30:16;9.47;;;5.70;;
16504;SDS011;8365;51.030;4.696;2022-12-07T11:32:58;8.93;;;6.93;;
16504;SDS011;8365;51.030;4.696;2022-12-07T11:38:53;10.37;;;5.87;;
16504;SDS011;8365;51.030;4.696;2022-12-07T11:41:29;7.20;;;4.70;;
16504;SDS011;8365;51.030;4.696;2022-12-07T11:44:22;9.50;;;5.67;;
16504;SDS011;8365;51.030;4.696;2022-12-07T11:47:06;8.93;;;5.30;;
16504;SDS011;8365;51.030;4.696;2022-12-07T11:49:50;9.47;;;4.80;;
16504;SDS011;8365;51.030;4.696;2022-12-07T11:52:49;5.97;;;4.87;;
16504;SDS011;8365;51.030;4.696;2022-12-07T11:55:45;6.83;;;4.63;;
16504;SDS011;8365;51.030;4.696;2022-12-07T12:03:45;11.27;;;6.70;;
16504;SDS011;8365;51.030;4.696;2022-12-07T12:06:45;11.40;;;6.33;;
16504;SDS011;8365;51.030;4.696;2022-12-07T12:09:26;9.10;;;6.10;;
16504;SDS011;8365;51.030;4.696;2022-12-07T12:18:17;10.37;;;6.67;;
16504;SDS011;8365;51.030;4.696;2022-12-07T12:21:15;6.37;;;5.50;;
16504;SDS011;8365;51.030;4.696;2022-12-07T12:24:12;6.80;;;5.80;;
16504;SDS011;8365;51.030;4.696;2022-12-07T12:26:54;7.70;;;5.97;;
16504;SDS011;8365;51.030;4.696;2022-12-07T12:29:52;9.63;;;6.10;;
16504;SDS011;8365;51.030;4.696;2022-12-07T12:35:31;7.53;;;5.77;;
16504;SDS011;8365;51.030;4.696;2022-12-07T12:42:00;7.67;;;5.30;;
16504;SDS011;8365;51.030;4.696;2022-12-07T12:47:04;8.83;;;5.97;;
16504;SDS011;8365;51.030;4.696;2022-12-07T12:50:12;7.93;;;6.50;;
16504;SDS011;8365;51.030;4.696;2022-12-07T12:52:51;8.80;;;5.83;;
16504;SDS011;8365;51.030;4.696;2022-12-07T12:55:30;11.10;;;6.17;;
16504;SDS011;8365;51.030;4.696;2022-12-07T13:00:49;8.63;;;5.77;;
16504;SDS011;8365;51.030;4.696;2022-12-07T13:03:57;7.37;;;5.90;;
16504;SDS011;8365;51.030;4.696;2022-12-07T13:08:58;8.20;;;6.20;;
16504;SDS011;8365;51.030;4.696;2022-12-07T13:11:37;12.00;;;6.20;;
16504;SDS011;8365;51.030;4.696;2022-12-07T13:20:04;11.80;;;6.93;;
16504;SDS011;8365;51.030;4.696;2022-12-07T13:22:39;7.03;;;4.97;;
16504;SDS011;8365;51.030;4.696;2022-12-07T13:28:14;16.50;;;13.43;;
16504;SDS011;8365;51.030;4.696;2022-12-07T13:30:46;13.17;;;10.83;;
16504;SDS011;8365;51.030;4.696;2022-12-07T13:33:34;6.70;;;5.80;;
16504;SDS011;8365;51.030;4.696;2022-12-07T13:36:08;11.90;;;8.13;;
16504;SDS011;8365;51.030;4.696;2022-12-07T13:38:49;6.20;;;5.20;;
16504;SDS011;8365;51.030;4.696;2022-12-07T13:41:23;5.97;;;5.10;;
16504;SDS011;8365;51.030;4.696;2022-12-07T13:43:59;7.73;;;6.00;;
16504;SDS011;8365;51.030;4.696;2022-12-07T13:49:32;13.40;;;9.67;;
16504;SDS011;8365;51.030;4.696;2022-12-07T13:52:17;11.77;;;8.90;;
16504;SDS011;8365;51.030;4.696;2022-12-07T13:54:59;9.40;;;8.40;;
16504;SDS011;8365;51.030;4.696;2022-12-07T13:57:33;8.57;;;7.40;;
16504;SDS011;8365;51.030;4.696;2022-12-07T14:00:13;8.53;;;7.67;;
16504;SDS011;8365;51.030;4.696;2022-12-07T14:08:47;11.37;;;8.33;;
16504;SDS011;8365;51.030;4.696;2022-12-07T14:11:18;6.77;;;5.93;;
16504;SDS011;8365;51.030;4.696;2022-12-07T14:13:58;6.97;;;5.57;;
16504;SDS011;8365;51.030;4.696;2022-12-07T14:16:35;7.53;;;5.33;;
16504;SDS011;8365;51.030;4.696;2022-12-07T14:22:54;9.50;;;7.43;;
16504;SDS011;8365;51.030;4.696;2022-12-07T14:27:58;9.83;;;7.23;;
16504;SDS011;8365;51.030;4.696;2022-12-07T14:30:31;10.97;;;7.00;;
16504;SDS011;8365;51.030;4.696;2022-12-07T14:33:04;10.00;;;7.40;;
16504;SDS011;8365;51.030;4.696;2022-12-07T14:35:35;8.43;;;7.20;;
16504;SDS011;8365;51.030;4.696;2022-12-07T14:38:07;7.47;;;6.50;;
16504;SDS011;8365;51.030;4.696;2022-12-07T14:40:38;9.10;;;6.33;;
16504;SDS011;8365;51.030;4.696;2022-12-07T14:43:11;9.17;;;5.70;;
16504;SDS011;8365;51.030;4.696;2022-12-07T14:45:44;8.53;;;5.83;;
16504;SDS011;8365;51.030;4.696;2022-12-07T14:48:15;9.40;;;5.83;;
16504;SDS011;8365;51.030;4.696;2022-12-07T14:50:48;5.50;;;5.00;;
16504;SDS011;8365;51.030;4.696;2022-12-07T14:53:21;9.53;;;6.70;;
16504;SDS011;8365;51.030;4.696;2022-12-07T14:55:59;14.70;;;10.37;;
16504;SDS011;8365;51.030;4.696;2022-12-07T14:58:30;7.73;;;5.47;;
16504;SDS011;8365;51.030;4.696;2022-12-07T15:01:00;8.03;;;5.90;;
16504;SDS011;8365;51.030;4.696;2022-12-07T15:03:33;12.93;;;7.43;;
16504;SDS011;8365;51.030;4.696;2022-12-07T15:06:10;8.80;;;4.40;;
16504;SDS011;8365;51.030;4.696;2022-12-07T15:08:44;9.83;;;7.20;;
16504;SDS011;8365;51.030;4.696;2022-12-07T15:11:15;7.43;;;4.30;;
16504;SDS011;8365;51.030;4.696;2022-12-07T15:13:47;5.50;;;4.90;;
16504;SDS011;8365;51.030;4.696;2022-12-07T15:16:37;6.73;;;4.63;;
16504;SDS011;8365;51.030;4.696;2022-12-07T15:19:13;5.20;;;4.60;;
16504;SDS011;8365;51.030;4.696;2022-12-07T15:21:45;7.57;;;4.87;;
16504;SDS011;8365;51.030;4.696;2022-12-07T15:24:16;8.70;;;5.30;;
16504;SDS011;8365;51.030;4.696;2022-12-07T15:26:46;5.60;;;5.10;;
16504;SDS011;8365;51.030;4.696;2022-12-07T15:29:17;5.90;;;5.20;;
16504;SDS011;8365;51.030;4.696;2022-12-07T15:31:48;5.87;;;4.93;;
16504;SDS011;8365;51.030;4.696;2022-12-07T15:34:19;8.70;;;5.63;;
16504;SDS011;8365;51.030;4.696;2022-12-07T15:36:49;7.20;;;5.77;;
16504;SDS011;8365;51.030;4.696;2022-12-07T15:39:22;9.33;;;7.40;;
16504;SDS011;8365;51.030;4.696;2022-12-07T15:41:52;8.77;;;7.07;;
16504;SDS011;8365;51.030;4.696;2022-12-07T15:44:23;7.07;;;6.07;;
16504;SDS011;8365;51.030;4.696;2022-12-07T15:47:12;10.30;;;6.77;;
16504;SDS011;8365;51.030;4.696;2022-12-07T15:49:42;9.80;;;7.57;;
16504;SDS011;8365;51.030;4.696;2022-12-07T15:52:13;12.70;;;8.57;;
16504;SDS011;8365;51.030;4.696;2022-12-07T15:54:43;12.73;;;8.60;;
16504;SDS011;8365;51.030;4.696;2022-12-07T15:57:14;10.77;;;8.20;;
16504;SDS011;8365;51.030;4.696;2022-12-07T15:59:44;11.40;;;8.07;;
16504;SDS011;8365;51.030;4.696;2022-12-07T16:02:15;11.80;;;8.50;;
16504;SDS011;8365;51.030;4.696;2022-12-07T16:04:45;12.60;;;9.37;;
16504;SDS011;8365;51.030;4.696;2022-12-07T16:07:16;12.27;;;10.23;;
16504;SDS011;8365;51.030;4.696;2022-12-07T16:09:48;12.20;;;10.13;;
16504;SDS011;8365;51.030;4.696;2022-12-07T16:12:22;10.97;;;9.43;;
16504;SDS011;8365;51.030;4.696;2022-12-07T16:14:55;10.57;;;9.47;;
16504;SDS011;8365;51.030;4.696;2022-12-07T16:17:25;11.17;;;8.90;;
16504;SDS011;8365;51.030;4.696;2022-12-07T16:19:58;10.10;;;7.70;;
16504;SDS011;8365;51.030;4.696;2022-12-07T16:22:28;9.30;;;8.40;;
16504;SDS011;8365;51.030;4.696;2022-12-07T16:24:59;10.23;;;8.53;;
16504;SDS011;8365;51.030;4.696;2022-12-07T16:27:30;11.17;;;9.20;;
16504;SDS011;8365;51.030;4.696;2022-12-07T16:30:00;11.60;;;8.77;;
16504;SDS011;8365;51.030;4.696;2022-12-07T16:32:30;9.27;;;7.97;;
16504;SDS011;8365;51.030;4.696;2022-12-07T16:35:01;9.60;;;8.27;;
16504;SDS011;8365;51.030;4.696;2022-12-07T16:37:32;13.30;;;7.20;;
16504;SDS011;8365;51.030;4.696;2022-12-07T16:40:02;13.33;;;7.80;;
16504;SDS011;8365;51.030;4.696;2022-12-07T16:42:33;8.70;;;7.43;;
16504;SDS011;8365;51.030;4.696;2022-12-07T16:45:05;7.53;;;6.63;;
16504;SDS011;8365;51.030;4.696;2022-12-07T16:47:38;10.60;;;7.80;;
16504;SDS011;8365;51.030;4.696;2022-12-07T16:50:09;11.77;;;7.63;;
16504;SDS011;8365;51.030;4.696;2022-12-07T16:52:40;9.27;;;7.33;;
16504;SDS011;8365;51.030;4.696;2022-12-07T16:55:10;9.00;;;8.10;;
16504;SDS011;8365;51.030;4.696;2022-12-07T16:57:40;9.83;;;5.70;;
16504;SDS011;8365;51.030;4.696;2022-12-07T17:00:11;8.13;;;5.40;;
16504;SDS011;8365;51.030;4.696;2022-12-07T17:02:42;8.73;;;6.67;;
16504;SDS011;8365;51.030;4.696;2022-12-07T17:05:12;6.43;;;5.60;;
16504;SDS011;8365;51.030;4.696;2022-12-07T17:07:43;6.33;;;5.10;;
16504;SDS011;8365;51.030;4.696;2022-12-07T17:10:13;16.37;;;12.80;;
16504;SDS011;8365;51.030;4.696;2022-12-07T17:12:44;10.80;;;7.90;;
16504;SDS011;8365;51.030;4.696;2022-12-07T17:15:14;5.70;;;4.87;;
16504;SDS011;8365;51.030;4.696;2022-12-07T17:17:52;8.37;;;6.60;;
16504;SDS011;8365;51.030;4.696;2022-12-07T17:20:26;7.87;;;4.40;;
16504;SDS011;8365;51.030;4.696;2022-12-07T17:22:57;10.03;;;5.70;;
16504;SDS011;8365;51.030;4.696;2022-12-07T17:25:27;7.97;;;5.33;;
16504;SDS011;8365;51.030;4.696;2022-12-07T17:27:58;9.83;;;5.70;;